createdAt,value
2019-04-22T00:00:36.159Z,4.90
2019-04-22T00:03:07.496Z,4.27
2019-04-22T00:05:55.152Z,5.67
2019-04-22T00:08:36.159Z,3.93
2019-04-22T00:11:14.433Z,4.10
2019-04-22T00:13:49.190Z,4.63
2019-04-22T00:16:19.157Z,4.73
2019-04-22T00:19:00.990Z,4.97
2019-04-22T00:21:25.749Z,4.80
2019-04-22T00:23:57.887Z,4.60
2019-04-22T00:26:30.925Z,4.33
2019-04-22T00:29:21.052Z,5.03
2019-04-22T00:31:33.228Z,4.57
2019-04-22T00:34:14.456Z,5.23
2019-04-22T00:36:45.168Z,4.73
2019-04-22T00:39:21.993Z,4.60
2019-04-22T00:41:48.727Z,5.10
2019-04-22T00:44:26.054Z,5.00
2019-04-22T00:47:02.865Z,5.07
2019-04-22T00:52:03.507Z,4.37
2019-04-22T00:54:37.960Z,5.80
2019-04-22T00:57:06.437Z,6.43
2019-04-22T00:59:42.138Z,5.37
2019-04-22T01:02:18.141Z,5.33
2019-04-22T01:04:49.029Z,5.13
2019-04-22T01:07:17.553Z,5.13
2019-04-22T01:12:28.296Z,4.93
2019-04-22T01:15:05.777Z,4.60
2019-04-22T01:17:36.370Z,5.77
2019-04-22T01:20:45.679Z,5.70
2019-04-22T01:22:33.041Z,5.47
2019-04-22T01:25:08.005Z,4.80
2019-04-22T01:27:39.311Z,6.40
2019-04-22T01:30:09.491Z,6.23
2019-04-22T01:32:37.384Z,4.33
2019-04-22T01:35:19.718Z,5.30
2019-04-22T01:37:54.203Z,4.87
2019-04-22T01:40:39.061Z,4.40
2019-04-22T01:43:14.757Z,4.40
2019-04-22T01:45:39.518Z,3.93
2019-04-22T01:48:10.923Z,5.23
2019-04-22T01:50:43.105Z,4.47
2019-04-22T01:53:23.581Z,3.80
2019-04-22T01:55:50.002Z,4.63
2019-04-22T01:58:18.405Z,4.93
2019-04-22T02:01:13.629Z,5.53
2019-04-22T02:03:33.214Z,5.93
2019-04-22T02:06:05.806Z,5.67
2019-04-22T02:11:17.352Z,5.40
2019-04-22T02:13:42.823Z,3.90
2019-04-22T02:16:14.183Z,4.63
2019-04-22T02:18:44.931Z,6.30
2019-04-22T02:21:13.690Z,3.83
2019-04-22T02:24:05.204Z,4.00
2019-04-22T02:26:25.572Z,4.57
2019-04-22T02:28:55.212Z,4.90
2019-04-22T02:34:24.069Z,4.80
2019-04-22T02:36:36.487Z,4.20
2019-04-22T02:39:12.925Z,4.03
2019-04-22T02:49:25.075Z,5.13
2019-04-22T02:52:13.171Z,4.13
2019-04-22T02:57:07.246Z,5.63
2019-04-22T02:59:34.467Z,4.50
2019-04-22T03:02:03.171Z,5.30
2019-04-22T03:04:37.460Z,5.17
2019-04-22T03:07:05.461Z,4.63
2019-04-22T03:09:42.432Z,4.23
2019-04-22T03:12:21.939Z,4.63
2019-04-22T03:17:25.589Z,4.27
2019-04-22T03:22:24.212Z,4.33
2019-04-22T03:27:31.806Z,5.53
2019-04-22T03:40:40.470Z,4.77
2019-04-22T03:42:57.770Z,5.53
2019-04-22T03:47:57.412Z,6.20
2019-04-22T03:55:38.392Z,6.60
2019-04-22T03:57:59.262Z,7.60
2019-04-22T04:00:55.846Z,7.70
2019-04-22T04:05:52.576Z,7.03
2019-04-22T04:08:19.721Z,7.37
2019-04-22T04:10:50.146Z,6.73
2019-04-22T04:16:10.508Z,6.20
2019-04-22T04:18:44.590Z,6.80
2019-04-22T04:23:57.264Z,6.60
2019-04-22T04:26:35.309Z,7.77
2019-04-22T04:28:50.376Z,7.17
2019-04-22T04:33:51.189Z,6.43
2019-04-22T04:36:34.190Z,6.43
2019-04-22T04:38:58.216Z,6.70
2019-04-22T04:41:33.809Z,7.73
2019-04-22T04:46:51.557Z,7.27
2019-04-22T04:49:07.542Z,6.90
2019-04-22T04:56:44.475Z,7.50
2019-04-22T05:04:37.256Z,6.83
2019-04-22T05:07:00.025Z,7.30
2019-04-22T05:09:21.470Z,7.00
2019-04-22T05:12:03.481Z,6.87
2019-04-22T05:14:24.889Z,6.77
2019-04-22T05:17:02.380Z,7.40
2019-04-22T05:24:34.722Z,6.10
2019-04-22T05:27:13.328Z,6.50
2019-04-22T05:32:17.539Z,6.07
2019-04-22T05:34:48.824Z,5.80
2019-04-22T05:37:24.090Z,6.13
2019-04-22T05:39:49.573Z,5.87
2019-04-22T05:42:20.291Z,5.87
2019-04-22T05:44:55.198Z,7.47
2019-04-22T05:47:28.840Z,6.03
2019-04-22T05:49:54.615Z,6.87
2019-04-22T05:52:31.641Z,6.77
2019-04-22T05:55:08.721Z,6.33
2019-04-22T05:57:38.916Z,6.47
2019-04-22T06:00:17.988Z,7.57
2019-04-22T06:02:53.082Z,7.03
2019-04-22T06:05:17.289Z,6.80
2019-04-22T06:07:47.225Z,6.73
2019-04-22T06:10:28.727Z,7.37
2019-04-22T06:12:56.518Z,7.50
2019-04-22T06:15:31.626Z,6.43
2019-04-22T06:18:16.106Z,7.17
2019-04-22T06:20:49.773Z,6.60
2019-04-22T06:23:21.520Z,5.70
2019-04-22T06:28:31.558Z,6.07
2019-04-22T06:30:57.417Z,6.57
2019-04-22T06:33:26.141Z,7.20
2019-04-22T06:36:01.960Z,5.70
2019-04-22T06:41:13.728Z,7.33
2019-04-22T06:43:47.533Z,4.33
2019-04-22T06:46:16.928Z,7.37
2019-04-22T06:48:47.893Z,5.80
2019-04-22T06:51:24.539Z,5.57
2019-04-22T06:53:56.628Z,6.23
2019-04-22T06:56:21.877Z,6.67
2019-04-22T06:58:59.035Z,5.10
2019-04-22T07:01:37.158Z,5.67
2019-04-22T07:04:08.028Z,7.20
2019-04-22T07:06:41.869Z,5.80
2019-04-22T07:09:30.146Z,6.80
2019-04-22T07:11:43.174Z,7.23
2019-04-22T07:14:12.309Z,7.40
2019-04-22T07:16:54.504Z,6.57
2019-04-22T07:19:24.977Z,6.10
2019-04-22T07:21:50.413Z,7.33
2019-04-22T07:24:41.351Z,7.00
2019-04-22T07:26:57.599Z,5.77
2019-04-22T07:29:32.787Z,7.03
2019-04-22T07:32:29.353Z,5.90
2019-04-22T07:34:44.546Z,7.53
2019-04-22T07:37:31.359Z,7.33
2019-04-22T07:42:18.788Z,6.50
2019-04-22T07:44:53.162Z,7.77
2019-04-22T07:47:29.686Z,7.90
2019-04-22T07:50:03.976Z,8.57
2019-04-22T07:52:31.994Z,8.23
2019-04-22T07:54:59.628Z,8.43
2019-04-22T08:00:11.151Z,9.40
2019-04-22T08:02:47.916Z,7.07
2019-04-22T08:07:43.110Z,7.43
2019-04-22T08:10:23.878Z,8.10
2019-04-22T08:12:50.760Z,7.47
2019-04-22T08:15:27.566Z,7.23
2019-04-22T08:20:33.637Z,8.47
2019-04-22T08:23:11.743Z,5.00
2019-04-22T08:25:43.142Z,7.10
2019-04-22T08:28:17.866Z,5.87
2019-04-22T08:30:48.948Z,4.27
2019-04-22T08:33:21.616Z,4.00
2019-04-22T08:38:50.721Z,4.10
2019-04-22T08:41:17.867Z,5.10
2019-04-22T08:43:55.381Z,5.20
2019-04-22T08:46:23.514Z,5.30
2019-04-22T08:51:28.219Z,5.77
2019-04-22T08:53:59.875Z,7.30
2019-04-22T08:56:34.693Z,7.13
2019-04-22T08:59:10.965Z,7.13
2019-04-22T09:01:32.756Z,6.17
2019-04-22T09:04:09.948Z,5.57
2019-04-22T09:07:06.049Z,6.80
2019-04-22T09:09:19.617Z,6.53
2019-04-22T09:11:57.185Z,7.17
2019-04-22T09:14:26.440Z,7.30
2019-04-22T09:17:05.986Z,6.57
2019-04-22T09:19:30.219Z,6.60
2019-04-22T09:22:08.248Z,7.47
2019-04-22T09:24:35.685Z,6.83
2019-04-22T09:27:15.924Z,6.70
2019-04-22T09:29:41.257Z,7.87
2019-04-22T09:34:46.961Z,8.40
2019-04-22T09:39:59.837Z,7.87
2019-04-22T09:42:25.889Z,7.90
2019-04-22T09:44:51.809Z,5.70
2019-04-22T09:47:33.853Z,5.23
2019-04-22T09:52:35.888Z,4.60
2019-04-22T09:55:15.509Z,3.67
2019-04-22T09:57:52.334Z,3.20
2019-04-22T10:00:16.874Z,3.50
2019-04-22T10:02:59.239Z,3.23
2019-04-22T10:05:28.125Z,3.00
2019-04-22T10:07:59.588Z,3.73
2019-04-22T10:10:35.156Z,3.10
2019-04-22T10:13:06.079Z,4.43
2019-04-22T10:15:45.491Z,4.20
2019-04-22T10:18:09.824Z,4.60
2019-04-22T10:20:45.867Z,3.93
2019-04-22T10:23:22.627Z,3.60
2019-04-22T10:25:53.719Z,4.70
2019-04-22T10:28:26.985Z,4.67
2019-04-22T10:31:14.501Z,4.73
2019-04-22T10:33:23.944Z,4.43
2019-04-22T10:35:34.951Z,4.30
2019-04-22T10:38:06.119Z,3.93
2019-04-22T10:40:38.756Z,4.00
2019-04-22T10:43:11.573Z,3.60
2019-04-22T10:45:44.021Z,3.70
2019-04-22T10:48:16.364Z,3.73
2019-04-22T10:50:48.735Z,5.20
2019-04-22T10:53:21.670Z,4.53
2019-04-22T10:55:54.369Z,4.00
2019-04-22T10:58:26.667Z,3.77
2019-04-22T11:01:00.200Z,4.30
2019-04-22T11:03:35.191Z,4.17
2019-04-22T11:06:05.598Z,4.40
2019-04-22T11:08:43.327Z,4.10
2019-04-22T11:11:26.007Z,4.07
2019-04-22T11:13:45.891Z,4.20
2019-04-22T11:16:19.432Z,4.03
2019-04-22T11:18:51.805Z,3.83
2019-04-22T11:21:23.297Z,3.93
2019-04-22T11:23:56.519Z,4.73
2019-04-22T11:26:30.204Z,4.07
2019-04-22T11:29:03.497Z,4.63
2019-04-22T11:31:36.466Z,4.47
2019-04-22T11:34:08.921Z,5.00
2019-04-22T11:36:42.903Z,4.37
2019-04-22T11:39:16.876Z,5.07
2019-04-22T11:41:46.620Z,4.43
2019-04-22T11:44:17.463Z,4.10
2019-04-22T11:46:49.519Z,4.10
2019-04-22T11:49:21.756Z,4.33
2019-04-22T11:51:54.225Z,5.40
2019-04-22T11:54:25.233Z,5.00
2019-04-22T11:56:56.826Z,4.73
2019-04-22T11:59:29.033Z,5.10
2019-04-22T12:02:04.684Z,4.47
2019-04-22T12:04:35.988Z,5.20
2019-04-22T12:07:08.815Z,5.70
2019-04-22T12:09:39.643Z,5.67
2019-04-22T12:12:11.926Z,6.37
2019-04-22T12:14:43.203Z,4.50
2019-04-22T12:17:16.009Z,5.30
2019-04-22T12:19:48.623Z,5.20
2019-04-22T12:22:20.885Z,5.60
2019-04-22T12:24:52.451Z,6.57
2019-04-22T12:27:24.872Z,5.80
2019-04-22T12:29:56.818Z,5.67
2019-04-22T12:32:27.777Z,4.97
2019-04-22T12:35:01.732Z,5.20
2019-04-22T12:37:40.658Z,5.58
2019-04-22T12:40:08.843Z,4.83
2019-04-22T12:42:39.713Z,6.00
2019-04-22T12:45:12.231Z,6.27
2019-04-22T12:47:44.127Z,6.33
2019-04-22T12:50:24.085Z,5.60
2019-04-22T12:52:58.942Z,6.03
2019-04-22T12:55:24.134Z,5.83
2019-04-22T12:57:58.892Z,6.07
2019-04-22T13:00:30.123Z,5.57
2019-04-22T13:03:01.230Z,5.00
2019-04-22T13:05:33.396Z,5.60
2019-04-22T13:08:05.630Z,5.40
2019-04-22T13:10:45.432Z,5.20
2019-04-22T13:13:11.295Z,5.43
2019-04-22T13:15:44.517Z,5.20
2019-04-22T13:18:27.684Z,4.97
2019-04-22T13:20:50.712Z,4.40
2019-04-22T13:23:25.560Z,4.90
2019-04-22T13:25:59.057Z,5.53
2019-04-22T13:28:31.484Z,4.50
2019-04-22T13:31:03.783Z,4.87
2019-04-22T13:33:34.790Z,4.70
2019-04-22T13:36:06.108Z,4.50
2019-04-22T13:38:38.401Z,4.43
2019-04-22T13:41:21.287Z,4.57
2019-04-22T13:43:43.049Z,4.53
2019-04-22T13:46:14.504Z,4.33
2019-04-22T13:49:10.667Z,4.70
2019-04-22T13:52:15.041Z,4.63
2019-04-22T13:56:50.564Z,4.50
2019-04-22T13:59:09.054Z,4.40
2019-04-22T14:01:52.648Z,3.63
2019-04-22T14:04:26.067Z,4.97
2019-04-22T14:07:03.066Z,4.53
2019-04-22T14:09:36.075Z,4.80
2019-04-22T14:12:10.284Z,4.77
2019-04-22T14:15:00.210Z,4.60
2019-04-22T14:17:32.779Z,4.60
2019-04-22T14:20:10.922Z,4.40
2019-04-22T14:22:44.298Z,4.90
2019-04-22T14:25:16.616Z,4.40
2019-04-22T14:27:56.567Z,4.90
2019-04-22T14:30:24.273Z,4.67
2019-04-22T14:32:56.000Z,5.33
2019-04-22T14:35:27.144Z,5.47
2019-04-22T14:37:58.331Z,5.90
2019-04-22T14:40:32.421Z,5.50
2019-04-22T14:44:49.467Z,5.87
2019-04-22T14:48:40.457Z,5.40
2019-04-22T14:51:05.275Z,5.23
2019-04-22T14:53:40.469Z,5.07
2019-04-22T14:55:48.571Z,5.17
2019-04-22T14:58:19.386Z,5.50
2019-04-22T15:00:51.939Z,4.80
2019-04-22T15:03:23.833Z,4.73
2019-04-22T15:05:55.484Z,4.60
2019-04-22T15:08:27.030Z,8.50
2019-04-22T15:10:58.299Z,6.43
2019-04-22T15:13:29.484Z,5.80
2019-04-22T15:16:03.209Z,5.03
2019-04-22T15:18:37.699Z,5.13
2019-04-22T15:21:14.402Z,4.60
2019-04-22T15:23:46.584Z,4.70
2019-04-22T15:26:17.899Z,4.90
2019-04-22T15:28:49.384Z,4.43
2019-04-22T15:31:21.524Z,5.27
2019-04-22T15:33:54.363Z,4.30
2019-04-22T15:36:26.235Z,4.87
2019-04-22T15:38:57.593Z,4.83
2019-04-22T15:41:30.536Z,5.37
2019-04-22T15:44:03.619Z,5.22
2019-04-22T15:46:37.119Z,5.20
2019-04-22T15:49:09.888Z,5.20
2019-04-22T15:51:42.898Z,4.77
2019-04-22T15:54:16.089Z,5.47
2019-04-22T15:56:48.863Z,5.50
2019-04-22T15:59:38.863Z,5.33
2019-04-22T16:02:00.084Z,7.03
2019-04-22T16:04:28.531Z,4.90
2019-04-22T16:07:01.200Z,4.83
2019-04-22T16:09:33.293Z,4.70
2019-04-22T16:12:16.148Z,5.13
2019-04-22T16:14:41.883Z,4.53
2019-04-22T16:17:10.590Z,4.90
2019-04-22T16:19:43.271Z,4.37
2019-04-22T16:22:19.052Z,6.27
2019-04-22T16:24:52.176Z,5.83
2019-04-22T16:27:27.298Z,6.13
2019-04-22T16:30:01.317Z,6.17
2019-04-22T16:32:34.654Z,4.60
2019-04-22T16:35:08.517Z,5.40
2019-04-22T16:37:41.066Z,5.17
2019-04-22T16:40:16.598Z,5.30
2019-04-22T16:42:58.304Z,5.33
2019-04-22T16:45:27.366Z,5.47
2019-04-22T16:48:02.153Z,6.27
2019-04-22T16:50:35.030Z,6.03
2019-04-22T16:53:08.286Z,5.10
2019-04-22T16:55:42.672Z,5.53
2019-04-22T16:58:15.030Z,6.53
2019-04-22T17:00:47.164Z,5.47
2019-04-22T17:03:22.505Z,7.33
2019-04-22T17:06:12.138Z,5.10
2019-04-22T17:08:44.946Z,5.77
2019-04-22T17:11:16.179Z,5.37
2019-04-22T17:13:48.110Z,5.60
2019-04-22T17:16:24.188Z,6.40
2019-04-22T17:18:58.403Z,5.63
2019-04-22T17:21:32.019Z,6.03
2019-04-22T17:24:03.963Z,6.13
2019-04-22T17:26:38.808Z,6.07
2019-04-22T17:29:12.358Z,7.10
2019-04-22T17:31:50.948Z,6.87
2019-04-22T17:34:23.438Z,7.90
2019-04-22T17:36:57.514Z,7.47
2019-04-22T17:39:43.315Z,8.13
2019-04-22T17:42:25.366Z,7.47
2019-04-22T17:45:17.601Z,8.23
2019-04-22T17:48:09.807Z,7.60
2019-04-22T17:50:50.931Z,7.70
2019-04-22T17:53:41.724Z,7.57
2019-04-22T17:55:57.484Z,8.17
2019-04-22T17:58:38.179Z,8.53
2019-04-22T18:01:02.765Z,7.97
2019-04-22T18:03:25.811Z,8.93
2019-04-22T18:05:57.440Z,10.40
2019-04-22T18:08:40.784Z,10.80
2019-04-22T18:11:24.402Z,12.30
2019-04-22T18:13:51.917Z,13.33
2019-04-22T18:16:27.628Z,13.67
2019-04-22T18:19:01.131Z,12.40
2019-04-22T18:21:28.908Z,13.20
2019-04-22T18:23:56.530Z,12.60
2019-04-22T18:26:38.939Z,11.13
2019-04-22T18:29:14.478Z,10.40
2019-04-22T18:31:38.544Z,10.30
2019-04-22T18:34:10.239Z,9.40
2019-04-22T18:36:45.640Z,10.73
2019-04-22T18:39:29.930Z,9.87
2019-04-22T18:42:01.795Z,11.23
2019-04-22T18:44:39.864Z,11.80
2019-04-22T18:47:10.699Z,10.60
2019-04-22T18:49:42.796Z,9.87
2019-04-22T18:52:38.669Z,8.70
2019-04-22T18:55:17.976Z,8.83
2019-04-22T18:58:01.774Z,7.90
2019-04-22T19:00:23.563Z,7.63
2019-04-22T19:03:05.358Z,8.10
2019-04-22T19:05:46.795Z,8.30
2019-04-22T19:11:02.503Z,6.87
2019-04-22T19:16:19.597Z,7.83
2019-04-22T19:19:07.711Z,7.27
2019-04-22T19:21:13.253Z,7.33
2019-04-22T19:23:46.555Z,7.63
2019-04-22T19:26:30.359Z,9.20
2019-04-22T19:28:49.841Z,7.10
2019-04-22T19:31:24.656Z,7.67
2019-04-22T19:34:01.564Z,7.27
2019-04-22T19:36:35.601Z,7.67
2019-04-22T19:39:02.916Z,8.40
2019-04-22T19:41:36.382Z,13.90
2019-04-22T19:44:10.305Z,10.30
2019-04-22T19:46:44.772Z,10.33
2019-04-22T19:49:24.569Z,9.70
2019-04-22T19:51:58.422Z,9.33
2019-04-22T19:54:26.294Z,8.87
2019-04-22T19:56:48.555Z,8.03
2019-04-22T19:59:23.885Z,7.10
2019-04-22T20:02:00.676Z,8.13
2019-04-22T20:04:46.111Z,11.60
2019-04-22T20:07:12.600Z,11.53
2019-04-22T20:09:48.711Z,13.17
2019-04-22T20:12:18.976Z,21.13
2019-04-22T20:14:49.728Z,18.67
2019-04-22T20:17:28.593Z,9.37
2019-04-22T20:20:06.514Z,8.63
2019-04-22T20:22:30.317Z,8.07
2019-04-22T20:24:53.810Z,8.30
2019-04-22T20:27:42.674Z,10.80
2019-04-22T20:30:14.337Z,9.13
2019-04-22T20:32:41.397Z,9.27
2019-04-22T20:35:24.518Z,9.70
2019-04-22T20:37:54.955Z,9.83
2019-04-22T20:40:31.169Z,9.33
2019-04-22T20:43:00.138Z,11.20
2019-04-22T20:45:37.771Z,11.20
2019-04-22T20:47:58.701Z,11.77
2019-04-22T20:50:43.624Z,12.07
2019-04-22T20:53:19.987Z,13.47
2019-04-22T20:55:55.228Z,10.83
2019-04-22T20:58:23.296Z,13.57
2019-04-22T21:00:50.555Z,13.47
2019-04-22T21:03:20.890Z,11.60
2019-04-22T21:05:52.830Z,12.23
2019-04-22T21:08:40.362Z,11.93
2019-04-22T21:11:04.484Z,11.97
2019-04-22T21:13:33.025Z,11.37
2019-04-22T21:16:16.517Z,13.37
2019-04-22T21:18:43.919Z,12.47
2019-04-22T21:21:19.926Z,11.60
2019-04-22T21:23:45.821Z,12.93
2019-04-22T21:26:29.104Z,12.17
2019-04-22T21:28:58.431Z,12.27
2019-04-22T21:31:51.378Z,12.77
2019-04-22T21:34:05.108Z,12.87
2019-04-22T21:36:41.470Z,11.37
2019-04-22T21:39:12.590Z,12.03
2019-04-22T21:41:46.429Z,12.17
2019-04-22T21:44:18.397Z,12.33
2019-04-22T21:47:09.006Z,12.40
2019-04-22T21:49:29.807Z,12.43
2019-04-22T21:51:58.379Z,12.23
2019-04-22T21:54:42.476Z,11.60
2019-04-22T21:57:21.316Z,10.77
2019-04-22T21:59:38.456Z,11.90
2019-04-22T22:02:28.093Z,10.97
2019-04-22T22:04:52.763Z,12.03
2019-04-22T22:07:14.361Z,11.73
2019-04-22T22:10:01.384Z,12.43
2019-04-22T22:12:37.848Z,11.70
2019-04-22T22:15:09.774Z,12.57
2019-04-22T22:17:38.280Z,10.33
2019-04-22T22:20:13.503Z,11.53
2019-04-22T22:22:53.735Z,11.67
2019-04-22T22:25:23.955Z,9.83
2019-04-22T22:27:53.321Z,11.20
2019-04-22T22:33:05.915Z,11.70
2019-04-22T22:35:38.958Z,11.77
2019-04-22T22:38:09.464Z,11.53
2019-04-22T22:40:27.697Z,11.80
2019-04-22T22:42:59.407Z,12.40
2019-04-22T22:45:39.724Z,11.37
2019-04-22T22:48:32.230Z,12.90
2019-04-22T22:50:50.892Z,12.80
2019-04-22T22:53:40.411Z,12.87
2019-04-22T22:56:07.525Z,11.00
2019-04-22T22:58:34.047Z,11.03
2019-04-22T23:01:04.789Z,14.00
2019-04-22T23:03:51.467Z,12.80
2019-04-22T23:06:24.591Z,12.67
2019-04-22T23:08:54.049Z,12.90
2019-04-22T23:11:43.481Z,11.97
2019-04-22T23:14:00.052Z,12.73
2019-04-22T23:16:18.154Z,13.80
2019-04-22T23:18:57.598Z,14.20
2019-04-22T23:21:35.187Z,11.43
2019-04-22T23:24:21.516Z,12.57
2019-04-22T23:27:00.231Z,13.60
2019-04-22T23:29:26.896Z,11.60
2019-04-22T23:32:08.809Z,12.20
2019-04-22T23:34:49.809Z,11.47
2019-04-22T23:37:21.705Z,12.43
2019-04-22T23:39:58.412Z,11.77
2019-04-22T23:42:27.358Z,12.67
2019-04-22T23:45:03.600Z,11.67
2019-04-22T23:47:31.154Z,11.77
2019-04-22T23:50:14.764Z,12.10
2019-04-22T23:52:50.849Z,12.40
2019-04-22T23:55:20.597Z,11.10
2019-04-22T23:57:58.429Z,11.53
